aviador You're here:

FAJB Decoded Metar

in _UNIDENTIFIED
Report Time2017-08-24 08:00:00
UTC Time2017-08-24 08:53:03
Flight Rules unknown UNKNOWN
Wind240° at 04 kt
W.Rank240° ranks 12
Current wind is above 240° avg. (2.8)
VisibilityN/A
Phenomena:N/A
Clouds:N/A
Expected CloudBase > 11,200 ft AGL from Temp-Dew spread
CeilingNone
Temp18°C (ISA +14)
Dew Point-10°C (14% RH)
AAT13.5°C
QNH1020 hPa
Density Alt6,716 ft
Elevation5,334 ft
Report Wrong Elevation
Raw Report
FAJB 240800Z AUTO 24004KT //// // ////// 18/M10 Q1020=

Extra information for FAJB:More info

Metar Taf Metar & Taf Last 4 Metars F.Rules Stats Wind Profile Meteogram Temp Stats Metar ALERT Operation Metar Decoded Social comments